sensor_id;sensor_type;location;lat;lon;timestamp;P1;durP1;ratioP1;P2;durP2;ratioP2
42912;SDS011;50720;54.324;18.558;2022-12-18T00:00:26;56.53;;;22.85;;
42912;SDS011;50720;54.324;18.558;2022-12-18T00:03:18;53.00;;;22.25;;
42912;SDS011;50720;54.324;18.558;2022-12-18T00:08:17;51.63;;;22.38;;
42912;SDS011;50720;54.324;18.558;2022-12-18T00:10:47;60.30;;;23.90;;
42912;SDS011;50720;54.324;18.558;2022-12-18T00:13:18;49.53;;;19.17;;
42912;SDS011;50720;54.324;18.558;2022-12-18T00:15:48;50.65;;;22.08;;
42912;SDS011;50720;54.324;18.558;2022-12-18T00:18:24;53.10;;;19.17;;
42912;SDS011;50720;54.324;18.558;2022-12-18T00:20:53;52.85;;;20.48;;
42912;SDS011;50720;54.324;18.558;2022-12-18T00:23:27;50.40;;;19.23;;
42912;SDS011;50720;54.324;18.558;2022-12-18T00:25:58;50.00;;;20.40;;
42912;SDS011;50720;54.324;18.558;2022-12-18T00:28:28;51.20;;;20.20;;
42912;SDS011;50720;54.324;18.558;2022-12-18T00:31:01;46.78;;;16.75;;
42912;SDS011;50720;54.324;18.558;2022-12-18T00:33:33;47.55;;;18.63;;
42912;SDS011;50720;54.324;18.558;2022-12-18T00:36:03;46.25;;;17.73;;
42912;SDS011;50720;54.324;18.558;2022-12-18T00:41:04;36.75;;;15.40;;
42912;SDS011;50720;54.324;18.558;2022-12-18T00:43:35;48.90;;;15.82;;
42912;SDS011;50720;54.324;18.558;2022-12-18T00:46:04;44.08;;;15.07;;
42912;SDS011;50720;54.324;18.558;2022-12-18T00:48:37;40.67;;;17.30;;
42912;SDS011;50720;54.324;18.558;2022-12-18T00:51:06;45.08;;;18.27;;
42912;SDS011;50720;54.324;18.558;2022-12-18T00:53:37;40.15;;;18.38;;
42912;SDS011;50720;54.324;18.558;2022-12-18T00:56:07;51.55;;;17.65;;
42912;SDS011;50720;54.324;18.558;2022-12-18T00:58:36;49.47;;;19.85;;
42912;SDS011;50720;54.324;18.558;2022-12-18T01:01:06;48.08;;;19.40;;
42912;SDS011;50720;54.324;18.558;2022-12-18T01:03:38;51.72;;;18.33;;
42912;SDS011;50720;54.324;18.558;2022-12-18T01:06:08;52.55;;;17.58;;
42912;SDS011;50720;54.324;18.558;2022-12-18T01:08:40;52.00;;;19.63;;
42912;SDS011;50720;54.324;18.558;2022-12-18T01:11:10;56.13;;;21.17;;
42912;SDS011;50720;54.324;18.558;2022-12-18T01:16:11;47.45;;;18.85;;
42912;SDS011;50720;54.324;18.558;2022-12-18T01:18:43;53.75;;;20.63;;
42912;SDS011;50720;54.324;18.558;2022-12-18T01:21:14;45.92;;;18.35;;
42912;SDS011;50720;54.324;18.558;2022-12-18T01:23:44;53.83;;;22.45;;
42912;SDS011;50720;54.324;18.558;2022-12-18T01:26:15;69.47;;;22.83;;
42912;SDS011;50720;54.324;18.558;2022-12-18T01:28:45;68.90;;;23.60;;
42912;SDS011;50720;54.324;18.558;2022-12-18T01:31:16;53.33;;;20.75;;
42912;SDS011;50720;54.324;18.558;2022-12-18T01:33:50;68.63;;;22.90;;
42912;SDS011;50720;54.324;18.558;2022-12-18T01:36:21;48.22;;;20.80;;
42912;SDS011;50720;54.324;18.558;2022-12-18T01:38:53;54.40;;;21.13;;
42912;SDS011;50720;54.324;18.558;2022-12-18T01:41:24;78.32;;;23.25;;
42912;SDS011;50720;54.324;18.558;2022-12-18T01:47:21;55.05;;;21.13;;
42912;SDS011;50720;54.324;18.558;2022-12-18T01:49:56;69.03;;;22.13;;
42912;SDS011;50720;54.324;18.558;2022-12-18T01:52:28;62.63;;;24.02;;
42912;SDS011;50720;54.324;18.558;2022-12-18T01:55:00;61.10;;;21.45;;
42912;SDS011;50720;54.324;18.558;2022-12-18T01:57:33;58.65;;;21.88;;
42912;SDS011;50720;54.324;18.558;2022-12-18T02:00:04;61.83;;;22.83;;
42912;SDS011;50720;54.324;18.558;2022-12-18T02:02:37;59.40;;;22.73;;
42912;SDS011;50720;54.324;18.558;2022-12-18T02:05:09;64.72;;;27.13;;
42912;SDS011;50720;54.324;18.558;2022-12-18T02:07:43;64.97;;;24.17;;
42912;SDS011;50720;54.324;18.558;2022-12-18T02:10:19;56.22;;;22.65;;
42912;SDS011;50720;54.324;18.558;2022-12-18T02:12:55;63.78;;;22.45;;
42912;SDS011;50720;54.324;18.558;2022-12-18T02:15:32;58.70;;;23.55;;
42912;SDS011;50720;54.324;18.558;2022-12-18T02:18:08;57.53;;;20.85;;
42912;SDS011;50720;54.324;18.558;2022-12-18T02:20:43;53.83;;;23.20;;
42912;SDS011;50720;54.324;18.558;2022-12-18T02:23:19;55.70;;;20.98;;
42912;SDS011;50720;54.324;18.558;2022-12-18T02:26:13;67.07;;;20.77;;
42912;SDS011;50720;54.324;18.558;2022-12-18T02:28:47;58.45;;;21.45;;
42912;SDS011;50720;54.324;18.558;2022-12-18T02:31:22;54.00;;;20.15;;
42912;SDS011;50720;54.324;18.558;2022-12-18T02:33:56;45.67;;;20.25;;
42912;SDS011;50720;54.324;18.558;2022-12-18T02:36:30;59.92;;;22.40;;
42912;SDS011;50720;54.324;18.558;2022-12-18T02:39:02;52.70;;;22.75;;
42912;SDS011;50720;54.324;18.558;2022-12-18T02:41:37;56.03;;;22.17;;
42912;SDS011;50720;54.324;18.558;2022-12-18T02:44:08;50.30;;;19.90;;
42912;SDS011;50720;54.324;18.558;2022-12-18T02:46:40;50.28;;;19.27;;
42912;SDS011;50720;54.324;18.558;2022-12-18T02:49:17;45.40;;;18.45;;
42912;SDS011;50720;54.324;18.558;2022-12-18T02:51:55;43.78;;;20.80;;
42912;SDS011;50720;54.324;18.558;2022-12-18T02:54:36;63.67;;;20.00;;
42912;SDS011;50720;54.324;18.558;2022-12-18T02:57:20;51.97;;;18.45;;
42912;SDS011;50720;54.324;18.558;2022-12-18T02:59:58;55.67;;;19.92;;
42912;SDS011;50720;54.324;18.558;2022-12-18T03:02:33;44.78;;;18.30;;
42912;SDS011;50720;54.324;18.558;2022-12-18T03:05:10;45.58;;;17.02;;
42912;SDS011;50720;54.324;18.558;2022-12-18T03:07:44;40.38;;;18.77;;
42912;SDS011;50720;54.324;18.558;2022-12-18T03:10:19;47.00;;;18.20;;
42912;SDS011;50720;54.324;18.558;2022-12-18T03:12:56;46.33;;;19.42;;
42912;SDS011;50720;54.324;18.558;2022-12-18T03:15:31;39.70;;;16.85;;
42912;SDS011;50720;54.324;18.558;2022-12-18T03:18:06;40.85;;;17.42;;
42912;SDS011;50720;54.324;18.558;2022-12-18T03:20:39;42.83;;;18.25;;
42912;SDS011;50720;54.324;18.558;2022-12-18T03:23:14;39.17;;;14.85;;
42912;SDS011;50720;54.324;18.558;2022-12-18T03:25:51;41.85;;;17.15;;
42912;SDS011;50720;54.324;18.558;2022-12-18T03:31:04;35.97;;;13.10;;
42912;SDS011;50720;54.324;18.558;2022-12-18T03:33:37;36.45;;;14.27;;
42912;SDS011;50720;54.324;18.558;2022-12-18T03:36:12;32.40;;;15.85;;
42912;SDS011;50720;54.324;18.558;2022-12-18T03:38:42;31.80;;;14.93;;
42912;SDS011;50720;54.324;18.558;2022-12-18T03:41:14;30.92;;;13.40;;
42912;SDS011;50720;54.324;18.558;2022-12-18T03:43:50;28.08;;;13.88;;
42912;SDS011;50720;54.324;18.558;2022-12-18T03:46:27;38.75;;;14.73;;
42912;SDS011;50720;54.324;18.558;2022-12-18T03:49:00;31.77;;;12.90;;
42912;SDS011;50720;54.324;18.558;2022-12-18T03:51:35;32.15;;;14.00;;
42912;SDS011;50720;54.324;18.558;2022-12-18T03:54:09;41.00;;;13.52;;
42912;SDS011;50720;54.324;18.558;2022-12-18T03:56:41;33.85;;;14.60;;
42912;SDS011;50720;54.324;18.558;2022-12-18T03:59:16;33.45;;;12.57;;
42912;SDS011;50720;54.324;18.558;2022-12-18T04:01:47;28.90;;;12.50;;
42912;SDS011;50720;54.324;18.558;2022-12-18T04:04:20;29.88;;;11.88;;
42912;SDS011;50720;54.324;18.558;2022-12-18T04:06:52;29.85;;;12.98;;
42912;SDS011;50720;54.324;18.558;2022-12-18T04:09:23;34.85;;;13.57;;
42912;SDS011;50720;54.324;18.558;2022-12-18T04:11:54;31.83;;;13.32;;
42912;SDS011;50720;54.324;18.558;2022-12-18T04:14:25;33.67;;;13.65;;
42912;SDS011;50720;54.324;18.558;2022-12-18T04:19:24;32.58;;;13.05;;
42912;SDS011;50720;54.324;18.558;2022-12-18T04:21:53;33.50;;;14.27;;
42912;SDS011;50720;54.324;18.558;2022-12-18T04:24:23;29.10;;;14.07;;
42912;SDS011;50720;54.324;18.558;2022-12-18T04:26:52;34.53;;;14.55;;
42912;SDS011;50720;54.324;18.558;2022-12-18T04:29:24;39.10;;;15.88;;
42912;SDS011;50720;54.324;18.558;2022-12-18T04:31:54;32.80;;;13.52;;
42912;SDS011;50720;54.324;18.558;2022-12-18T04:34:23;32.20;;;13.55;;
42912;SDS011;50720;54.324;18.558;2022-12-18T04:36:53;31.67;;;14.13;;
42912;SDS011;50720;54.324;18.558;2022-12-18T04:39:23;22.77;;;11.13;;
42912;SDS011;50720;54.324;18.558;2022-12-18T04:41:52;32.60;;;12.88;;
42912;SDS011;50720;54.324;18.558;2022-12-18T04:44:25;31.98;;;14.18;;
42912;SDS011;50720;54.324;18.558;2022-12-18T04:46:54;29.13;;;12.40;;
42912;SDS011;50720;54.324;18.558;2022-12-18T04:49:24;39.60;;;13.90;;
42912;SDS011;50720;54.324;18.558;2022-12-18T04:51:54;27.45;;;12.85;;
42912;SDS011;50720;54.324;18.558;2022-12-18T04:54:24;28.30;;;14.17;;
42912;SDS011;50720;54.324;18.558;2022-12-18T04:56:53;29.73;;;12.60;;
42912;SDS011;50720;54.324;18.558;2022-12-18T04:59:24;32.10;;;13.93;;
42912;SDS011;50720;54.324;18.558;2022-12-18T05:01:54;30.55;;;14.05;;
42912;SDS011;50720;54.324;18.558;2022-12-18T05:04:23;27.55;;;12.40;;
42912;SDS011;50720;54.324;18.558;2022-12-18T05:06:53;36.20;;;13.50;;
42912;SDS011;50720;54.324;18.558;2022-12-18T05:09:23;26.13;;;12.40;;
42912;SDS011;50720;54.324;18.558;2022-12-18T05:11:52;30.30;;;12.30;;
42912;SDS011;50720;54.324;18.558;2022-12-18T05:14:22;20.80;;;9.15;;
42912;SDS011;50720;54.324;18.558;2022-12-18T05:16:53;29.75;;;13.98;;
42912;SDS011;50720;54.324;18.558;2022-12-18T05:19:27;26.17;;;12.88;;
42912;SDS011;50720;54.324;18.558;2022-12-18T05:21:56;28.15;;;12.68;;
42912;SDS011;50720;54.324;18.558;2022-12-18T05:24:26;31.35;;;12.85;;
42912;SDS011;50720;54.324;18.558;2022-12-18T05:26:56;35.10;;;13.27;;
42912;SDS011;50720;54.324;18.558;2022-12-18T05:29:25;40.35;;;14.88;;
42912;SDS011;50720;54.324;18.558;2022-12-18T05:31:56;32.65;;;13.38;;
42912;SDS011;50720;54.324;18.558;2022-12-18T05:34:26;28.75;;;13.63;;
42912;SDS011;50720;54.324;18.558;2022-12-18T05:36:55;26.52;;;12.38;;
42912;SDS011;50720;54.324;18.558;2022-12-18T05:39:25;28.08;;;13.70;;
42912;SDS011;50720;54.324;18.558;2022-12-18T05:41:54;28.80;;;12.18;;
42912;SDS011;50720;54.324;18.558;2022-12-18T05:44:24;29.13;;;12.48;;
42912;SDS011;50720;54.324;18.558;2022-12-18T05:46:54;32.33;;;13.77;;
42912;SDS011;50720;54.324;18.558;2022-12-18T05:49:25;27.80;;;12.75;;
42912;SDS011;50720;54.324;18.558;2022-12-18T05:51:55;26.17;;;11.50;;
42912;SDS011;50720;54.324;18.558;2022-12-18T05:54:26;27.00;;;10.43;;
42912;SDS011;50720;54.324;18.558;2022-12-18T05:56:56;30.73;;;13.13;;
42912;SDS011;50720;54.324;18.558;2022-12-18T05:59:26;24.83;;;11.07;;
42912;SDS011;50720;54.324;18.558;2022-12-18T06:01:57;33.88;;;13.68;;
42912;SDS011;50720;54.324;18.558;2022-12-18T06:04:27;23.83;;;11.35;;
42912;SDS011;50720;54.324;18.558;2022-12-18T06:06:56;22.35;;;11.02;;
42912;SDS011;50720;54.324;18.558;2022-12-18T06:09:26;31.30;;;11.52;;
42912;SDS011;50720;54.324;18.558;2022-12-18T06:11:57;24.73;;;11.10;;
42912;SDS011;50720;54.324;18.558;2022-12-18T06:14:27;24.77;;;11.73;;
42912;SDS011;50720;54.324;18.558;2022-12-18T06:16:58;28.00;;;11.65;;
42912;SDS011;50720;54.324;18.558;2022-12-18T06:19:28;31.13;;;13.43;;
42912;SDS011;50720;54.324;18.558;2022-12-18T06:21:57;18.90;;;10.50;;
42912;SDS011;50720;54.324;18.558;2022-12-18T06:24:27;28.35;;;12.90;;
42912;SDS011;50720;54.324;18.558;2022-12-18T06:26:56;26.80;;;12.77;;
42912;SDS011;50720;54.324;18.558;2022-12-18T06:29:26;27.30;;;13.50;;
42912;SDS011;50720;54.324;18.558;2022-12-18T06:31:56;32.33;;;12.35;;
42912;SDS011;50720;54.324;18.558;2022-12-18T06:34:27;20.65;;;10.75;;
42912;SDS011;50720;54.324;18.558;2022-12-18T06:36:56;23.38;;;12.00;;
42912;SDS011;50720;54.324;18.558;2022-12-18T06:39:26;24.77;;;11.75;;
42912;SDS011;50720;54.324;18.558;2022-12-18T06:41:56;22.90;;;11.40;;
42912;SDS011;50720;54.324;18.558;2022-12-18T06:44:26;22.73;;;10.52;;
42912;SDS011;50720;54.324;18.558;2022-12-18T06:46:55;32.15;;;14.18;;
42912;SDS011;50720;54.324;18.558;2022-12-18T06:49:26;27.58;;;12.77;;
42912;SDS011;50720;54.324;18.558;2022-12-18T06:51:56;31.52;;;11.30;;
42912;SDS011;50720;54.324;18.558;2022-12-18T06:54:26;28.73;;;12.63;;
42912;SDS011;50720;54.324;18.558;2022-12-18T06:56:56;24.00;;;10.15;;
42912;SDS011;50720;54.324;18.558;2022-12-18T06:59:26;33.03;;;12.32;;
42912;SDS011;50720;54.324;18.558;2022-12-18T07:01:55;23.58;;;10.23;;
42912;SDS011;50720;54.324;18.558;2022-12-18T07:04:27;26.42;;;11.50;;
42912;SDS011;50720;54.324;18.558;2022-12-18T07:06:57;25.87;;;12.43;;
42912;SDS011;50720;54.324;18.558;2022-12-18T07:09:27;29.58;;;12.95;;
42912;SDS011;50720;54.324;18.558;2022-12-18T07:11:56;24.00;;;12.02;;
42912;SDS011;50720;54.324;18.558;2022-12-18T07:14:26;22.45;;;10.52;;
42912;SDS011;50720;54.324;18.558;2022-12-18T07:16:55;23.88;;;11.07;;
42912;SDS011;50720;54.324;18.558;2022-12-18T07:19:28;27.33;;;11.73;;
42912;SDS011;50720;54.324;18.558;2022-12-18T07:21:58;29.43;;;11.63;;
42912;SDS011;50720;54.324;18.558;2022-12-18T07:24:28;24.50;;;12.13;;
42912;SDS011;50720;54.324;18.558;2022-12-18T07:26:57;27.67;;;11.95;;
42912;SDS011;50720;54.324;18.558;2022-12-18T07:29:27;26.25;;;12.93;;
42912;SDS011;50720;54.324;18.558;2022-12-18T07:31:58;25.13;;;10.57;;
42912;SDS011;50720;54.324;18.558;2022-12-18T07:34:27;24.25;;;10.68;;
42912;SDS011;50720;54.324;18.558;2022-12-18T07:36:57;20.13;;;10.10;;
42912;SDS011;50720;54.324;18.558;2022-12-18T07:39:26;29.17;;;12.15;;
42912;SDS011;50720;54.324;18.558;2022-12-18T07:41:56;24.00;;;10.98;;
42912;SDS011;50720;54.324;18.558;2022-12-18T07:44:43;27.23;;;11.02;;
42912;SDS011;50720;54.324;18.558;2022-12-18T07:47:14;20.10;;;9.70;;
42912;SDS011;50720;54.324;18.558;2022-12-18T07:49:44;18.73;;;10.43;;
42912;SDS011;50720;54.324;18.558;2022-12-18T07:52:13;21.05;;;9.52;;
42912;SDS011;50720;54.324;18.558;2022-12-18T07:54:50;20.40;;;10.23;;
42912;SDS011;50720;54.324;18.558;2022-12-18T07:57:20;15.77;;;7.85;;
42912;SDS011;50720;54.324;18.558;2022-12-18T08:00:10;20.60;;;9.23;;
42912;SDS011;50720;54.324;18.558;2022-12-18T08:02:42;18.48;;;9.05;;
42912;SDS011;50720;54.324;18.558;2022-12-18T08:05:12;23.60;;;9.90;;
42912;SDS011;50720;54.324;18.558;2022-12-18T08:07:41;19.40;;;9.52;;
42912;SDS011;50720;54.324;18.558;2022-12-18T08:10:11;18.92;;;8.45;;
42912;SDS011;50720;54.324;18.558;2022-12-18T08:12:40;21.45;;;9.15;;
42912;SDS011;50720;54.324;18.558;2022-12-18T08:15:11;19.52;;;7.90;;
42912;SDS011;50720;54.324;18.558;2022-12-18T08:17:42;19.40;;;8.05;;
42912;SDS011;50720;54.324;18.558;2022-12-18T08:20:12;15.30;;;7.78;;
42912;SDS011;50720;54.324;18.558;2022-12-18T08:22:42;18.13;;;9.50;;
42912;SDS011;50720;54.324;18.558;2022-12-18T08:25:12;22.25;;;8.27;;
42912;SDS011;50720;54.324;18.558;2022-12-18T08:27:42;18.65;;;8.02;;
42912;SDS011;50720;54.324;18.558;2022-12-18T08:30:12;15.30;;;7.28;;
42912;SDS011;50720;54.324;18.558;2022-12-18T08:32:43;15.57;;;7.22;;
42912;SDS011;50720;54.324;18.558;2022-12-18T08:35:13;19.40;;;7.70;;
42912;SDS011;50720;54.324;18.558;2022-12-18T08:37:44;13.15;;;6.90;;
42912;SDS011;50720;54.324;18.558;2022-12-18T08:40:14;15.00;;;7.32;;
42912;SDS011;50720;54.324;18.558;2022-12-18T08:42:43;14.80;;;6.80;;
42912;SDS011;50720;54.324;18.558;2022-12-18T08:45:30;13.27;;;7.10;;
42912;SDS011;50720;54.324;18.558;2022-12-18T08:48:01;19.20;;;7.85;;
42912;SDS011;50720;54.324;18.558;2022-12-18T08:50:31;16.50;;;8.25;;
42912;SDS011;50720;54.324;18.558;2022-12-18T08:53:00;19.55;;;8.55;;
42912;SDS011;50720;54.324;18.558;2022-12-18T08:55:30;18.73;;;8.82;;
42912;SDS011;50720;54.324;18.558;2022-12-18T08:57:59;15.63;;;7.72;;
42912;SDS011;50720;54.324;18.558;2022-12-18T09:00:29;16.08;;;8.00;;
42912;SDS011;50720;54.324;18.558;2022-12-18T09:02:58;15.05;;;7.75;;
42912;SDS011;50720;54.324;18.558;2022-12-18T09:05:30;17.33;;;7.93;;
42912;SDS011;50720;54.324;18.558;2022-12-18T09:07:59;16.95;;;8.77;;
42912;SDS011;50720;54.324;18.558;2022-12-18T09:10:29;13.35;;;6.93;;
42912;SDS011;50720;54.324;18.558;2022-12-18T09:13:02;17.90;;;8.32;;
42912;SDS011;50720;54.324;18.558;2022-12-18T09:15:31;13.55;;;6.95;;
42912;SDS011;50720;54.324;18.558;2022-12-18T09:18:03;23.40;;;8.25;;
42912;SDS011;50720;54.324;18.558;2022-12-18T09:20:33;18.00;;;9.77;;
42912;SDS011;50720;54.324;18.558;2022-12-18T09:23:02;17.23;;;7.18;;
42912;SDS011;50720;54.324;18.558;2022-12-18T09:25:33;16.15;;;7.07;;
42912;SDS011;50720;54.324;18.558;2022-12-18T09:28:04;18.33;;;8.03;;
42912;SDS011;50720;54.324;18.558;2022-12-18T09:30:36;20.35;;;8.43;;
42912;SDS011;50720;54.324;18.558;2022-12-18T09:33:07;24.30;;;8.45;;
42912;SDS011;50720;54.324;18.558;2022-12-18T09:35:38;16.52;;;8.20;;
42912;SDS011;50720;54.324;18.558;2022-12-18T09:38:08;18.83;;;8.80;;
42912;SDS011;50720;54.324;18.558;2022-12-18T09:40:41;17.67;;;7.65;;
42912;SDS011;50720;54.324;18.558;2022-12-18T09:43:13;21.45;;;9.15;;
42912;SDS011;50720;54.324;18.558;2022-12-18T09:45:47;20.17;;;9.43;;
42912;SDS011;50720;54.324;18.558;2022-12-18T09:48:25;19.15;;;9.60;;
42912;SDS011;50720;54.324;18.558;2022-12-18T09:50:57;19.92;;;9.32;;
42912;SDS011;50720;54.324;18.558;2022-12-18T09:53:32;23.05;;;8.75;;
42912;SDS011;50720;54.324;18.558;2022-12-18T09:56:06;19.55;;;9.02;;
42912;SDS011;50720;54.324;18.558;2022-12-18T09:58:41;21.48;;;9.93;;
42912;SDS011;50720;54.324;18.558;2022-12-18T10:01:15;19.25;;;9.30;;
42912;SDS011;50720;54.324;18.558;2022-12-18T10:04:00;21.42;;;8.63;;
42912;SDS011;50720;54.324;18.558;2022-12-18T10:06:32;24.20;;;10.00;;
42912;SDS011;50720;54.324;18.558;2022-12-18T10:09:09;18.20;;;9.07;;
42912;SDS011;50720;54.324;18.558;2022-12-18T10:11:48;16.00;;;7.00;;
42912;SDS011;50720;54.324;18.558;2022-12-18T10:14:26;16.85;;;7.75;;
42912;SDS011;50720;54.324;18.558;2022-12-18T10:17:03;16.90;;;7.07;;
42912;SDS011;50720;54.324;18.558;2022-12-18T10:19:47;21.70;;;8.68;;
42912;SDS011;50720;54.324;18.558;2022-12-18T10:22:24;18.00;;;7.75;;
42912;SDS011;50720;54.324;18.558;2022-12-18T10:25:00;19.45;;;8.07;;
42912;SDS011;50720;54.324;18.558;2022-12-18T10:27:34;15.95;;;7.15;;
42912;SDS011;50720;54.324;18.558;2022-12-18T10:30:04;16.10;;;6.63;;
42912;SDS011;50720;54.324;18.558;2022-12-18T10:32:42;15.00;;;6.72;;
42912;SDS011;50720;54.324;18.558;2022-12-18T10:35:15;13.73;;;7.47;;
42912;SDS011;50720;54.324;18.558;2022-12-18T10:38:04;17.65;;;6.93;;
42912;SDS011;50720;54.324;18.558;2022-12-18T10:40:49;13.38;;;7.05;;
42912;SDS011;50720;54.324;18.558;2022-12-18T10:43:22;17.20;;;6.93;;
42912;SDS011;50720;54.324;18.558;2022-12-18T10:46:04;20.02;;;7.93;;
42912;SDS011;50720;54.324;18.558;2022-12-18T10:48:53;18.33;;;6.90;;
42912;SDS011;50720;54.324;18.558;2022-12-18T10:51:26;18.48;;;7.40;;
42912;SDS011;50720;54.324;18.558;2022-12-18T10:54:01;15.70;;;7.50;;
42912;SDS011;50720;54.324;18.558;2022-12-18T10:56:33;15.07;;;6.78;;
42912;SDS011;50720;54.324;18.558;2022-12-18T10:59:05;16.33;;;6.32;;
42912;SDS011;50720;54.324;18.558;2022-12-18T11:01:47;19.05;;;6.88;;
42912;SDS011;50720;54.324;18.558;2022-12-18T11:04:19;15.43;;;6.82;;
42912;SDS011;50720;54.324;18.558;2022-12-18T11:06:56;16.10;;;5.53;;
42912;SDS011;50720;54.324;18.558;2022-12-18T11:09:27;18.55;;;6.40;;
42912;SDS011;50720;54.324;18.558;2022-12-18T11:11:59;15.38;;;6.53;;
42912;SDS011;50720;54.324;18.558;2022-12-18T11:14:32;12.73;;;6.43;;
42912;SDS011;50720;54.324;18.558;2022-12-18T11:17:18;14.45;;;6.07;;
42912;SDS011;50720;54.324;18.558;2022-12-18T11:19:52;15.20;;;7.32;;
42912;SDS011;50720;54.324;18.558;2022-12-18T11:22:26;14.55;;;5.80;;
42912;SDS011;50720;54.324;18.558;2022-12-18T11:24:58;12.55;;;5.70;;
42912;SDS011;50720;54.324;18.558;2022-12-18T11:27:49;13.77;;;5.70;;
42912;SDS011;50720;54.324;18.558;2022-12-18T11:30:21;13.13;;;6.00;;
42912;SDS011;50720;54.324;18.558;2022-12-18T11:32:53;16.17;;;6.80;;
42912;SDS011;50720;54.324;18.558;2022-12-18T11:35:37;12.85;;;5.65;;
42912;SDS011;50720;54.324;18.558;2022-12-18T11:38:16;9.15;;;5.47;;
42912;SDS011;50720;54.324;18.558;2022-12-18T11:40:51;10.57;;;5.68;;
42912;SDS011;50720;54.324;18.558;2022-12-18T11:43:27;14.73;;;5.65;;
42912;SDS011;50720;54.324;18.558;2022-12-18T11:46:01;11.85;;;5.75;;
42912;SDS011;50720;54.324;18.558;2022-12-18T11:48:43;13.93;;;5.70;;
42912;SDS011;50720;54.324;18.558;2022-12-18T11:51:18;9.88;;;5.07;;
42912;SDS011;50720;54.324;18.558;2022-12-18T11:53:55;15.95;;;5.90;;
42912;SDS011;50720;54.324;18.558;2022-12-18T11:56:27;12.15;;;5.82;;
42912;SDS011;50720;54.324;18.558;2022-12-18T11:59:02;22.58;;;6.38;;
42912;SDS011;50720;54.324;18.558;2022-12-18T12:01:40;10.32;;;4.43;;
42912;SDS011;50720;54.324;18.558;2022-12-18T12:04:30;11.93;;;5.45;;
42912;SDS011;50720;54.324;18.558;2022-12-18T12:07:16;10.25;;;4.63;;
42912;SDS011;50720;54.324;18.558;2022-12-18T12:09:57;10.15;;;4.22;;
42912;SDS011;50720;54.324;18.558;2022-12-18T12:12:35;7.47;;;3.63;;
42912;SDS011;50720;54.324;18.558;2022-12-18T12:15:26;7.20;;;3.55;;
42912;SDS011;50720;54.324;18.558;2022-12-18T12:18:05;13.65;;;4.80;;
42912;SDS011;50720;54.324;18.558;2022-12-18T12:20:47;7.43;;;4.07;;
42912;SDS011;50720;54.324;18.558;2022-12-18T12:23:25;9.98;;;4.20;;
42912;SDS011;50720;54.324;18.558;2022-12-18T12:26:03;7.88;;;4.22;;
42912;SDS011;50720;54.324;18.558;2022-12-18T12:28:42;8.55;;;4.20;;
42912;SDS011;50720;54.324;18.558;2022-12-18T12:31:27;6.65;;;4.22;;
42912;SDS011;50720;54.324;18.558;2022-12-18T12:34:08;9.20;;;4.40;;
42912;SDS011;50720;54.324;18.558;2022-12-18T12:36:51;7.88;;;4.70;;
42912;SDS011;50720;54.324;18.558;2022-12-18T12:42:00;11.30;;;4.20;;
42912;SDS011;50720;54.324;18.558;2022-12-18T12:44:50;9.27;;;4.78;;
42912;SDS011;50720;54.324;18.558;2022-12-18T12:47:24;10.10;;;3.95;;
42912;SDS011;50720;54.324;18.558;2022-12-18T12:49:57;8.70;;;4.40;;
42912;SDS011;50720;54.324;18.558;2022-12-18T12:52:30;9.43;;;4.43;;
42912;SDS011;50720;54.324;18.558;2022-12-18T12:55:04;10.48;;;4.72;;
42912;SDS011;50720;54.324;18.558;2022-12-18T12:57:45;10.57;;;4.10;;
42912;SDS011;50720;54.324;18.558;2022-12-18T13:00:18;9.23;;;5.18;;
42912;SDS011;50720;54.324;18.558;2022-12-18T13:02:50;8.85;;;4.22;;
42912;SDS011;50720;54.324;18.558;2022-12-18T13:05:25;8.13;;;4.05;;
42912;SDS011;50720;54.324;18.558;2022-12-18T13:08:01;8.70;;;4.47;;
42912;SDS011;50720;54.324;18.558;2022-12-18T13:10:34;11.52;;;5.30;;
42912;SDS011;50720;54.324;18.558;2022-12-18T13:13:07;12.05;;;5.47;;
42912;SDS011;50720;54.324;18.558;2022-12-18T13:15:38;12.10;;;6.45;;
42912;SDS011;50720;54.324;18.558;2022-12-18T13:18:13;13.30;;;5.22;;
42912;SDS011;50720;54.324;18.558;2022-12-18T13:20:46;13.43;;;6.18;;
42912;SDS011;50720;54.324;18.558;2022-12-18T13:23:29;14.33;;;5.90;;
42912;SDS011;50720;54.324;18.558;2022-12-18T13:29:03;13.52;;;6.60;;
42912;SDS011;50720;54.324;18.558;2022-12-18T13:35:03;13.82;;;6.10;;
42912;SDS011;50720;54.324;18.558;2022-12-18T13:38:20;13.50;;;5.97;;
42912;SDS011;50720;54.324;18.558;2022-12-18T13:40:54;9.07;;;5.35;;
42912;SDS011;50720;54.324;18.558;2022-12-18T13:43:30;10.98;;;5.45;;
42912;SDS011;50720;54.324;18.558;2022-12-18T13:46:21;14.65;;;5.18;;
42912;SDS011;50720;54.324;18.558;2022-12-18T13:48:56;10.65;;;5.88;;
42912;SDS011;50720;54.324;18.558;2022-12-18T13:51:33;19.35;;;7.45;;
42912;SDS011;50720;54.324;18.558;2022-12-18T13:54:06;14.45;;;6.63;;
42912;SDS011;50720;54.324;18.558;2022-12-18T13:56:47;14.45;;;5.55;;
42912;SDS011;50720;54.324;18.558;2022-12-18T13:59:18;11.18;;;5.65;;
42912;SDS011;50720;54.324;18.558;2022-12-18T14:01:53;12.50;;;5.82;;
42912;SDS011;50720;54.324;18.558;2022-12-18T14:04:26;15.05;;;6.22;;
42912;SDS011;50720;54.324;18.558;2022-12-18T14:06:57;14.43;;;6.07;;
42912;SDS011;50720;54.324;18.558;2022-12-18T14:09:34;11.35;;;5.45;;
42912;SDS011;50720;54.324;18.558;2022-12-18T14:12:06;11.55;;;5.55;;
42912;SDS011;50720;54.324;18.558;2022-12-18T14:15:01;14.35;;;5.60;;
42912;SDS011;50720;54.324;18.558;2022-12-18T14:17:33;11.45;;;5.68;;
42912;SDS011;50720;54.324;18.558;2022-12-18T14:20:05;16.83;;;5.88;;
42912;SDS011;50720;54.324;18.558;2022-12-18T14:22:43;10.20;;;5.30;;
42912;SDS011;50720;54.324;18.558;2022-12-18T14:27:44;8.80;;;4.68;;
42912;SDS011;50720;54.324;18.558;2022-12-18T14:30:23;10.90;;;4.80;;
42912;SDS011;50720;54.324;18.558;2022-12-18T14:33:05;12.55;;;4.60;;
42912;SDS011;50720;54.324;18.558;2022-12-18T14:35:39;10.48;;;5.20;;
42912;SDS011;50720;54.324;18.558;2022-12-18T14:38:11;14.30;;;5.45;;
42912;SDS011;50720;54.324;18.558;2022-12-18T14:40:57;13.77;;;6.35;;
42912;SDS011;50720;54.324;18.558;2022-12-18T14:43:27;15.20;;;6.18;;
42912;SDS011;50720;54.324;18.558;2022-12-18T14:48:36;16.75;;;7.95;;
42912;SDS011;50720;54.324;18.558;2022-12-18T14:51:14;22.47;;;7.97;;
42912;SDS011;50720;54.324;18.558;2022-12-18T14:53:46;19.17;;;8.75;;
42912;SDS011;50720;54.324;18.558;2022-12-18T14:56:22;22.60;;;9.50;;
42912;SDS011;50720;54.324;18.558;2022-12-18T14:58:53;22.65;;;8.95;;
42912;SDS011;50720;54.324;18.558;2022-12-18T15:01:28;25.67;;;9.75;;
42912;SDS011;50720;54.324;18.558;2022-12-18T15:04:01;18.02;;;7.95;;
42912;SDS011;50720;54.324;18.558;2022-12-18T15:06:33;23.00;;;8.80;;
42912;SDS011;50720;54.324;18.558;2022-12-18T15:09:20;20.73;;;8.27;;
42912;SDS011;50720;54.324;18.558;2022-12-18T15:11:55;19.27;;;8.30;;
42912;SDS011;50720;54.324;18.558;2022-12-18T15:14:31;26.48;;;8.68;;
42912;SDS011;50720;54.324;18.558;2022-12-18T15:17:14;18.55;;;7.82;;
42912;SDS011;50720;54.324;18.558;2022-12-18T15:19:47;22.23;;;8.90;;
42912;SDS011;50720;54.324;18.558;2022-12-18T15:22:24;20.13;;;8.40;;